Time;durP1;ratioP1;P1;durP2;ratioP2;P2;SDS_P1;SDS_P2;PMS_P1;PMS_P2;Temp;Humidity;BMP_temperature;BMP_pressure;BME280_temperature;BME280_humidity;BME280_pressure;Samples;Min_cycle;Max_cycle;Signal;HPM_P1;HPM_P2
2022/05/01 00:00:59;;;;;;;18.80;8.32;;;8.90;99.90;;;;;;5031291;28;20056;-47
2022/05/01 00:03:31;;;;;;;15.18;7.53;;;8.80;99.90;;;;;;5030989;28;20403;-46
2022/05/01 00:05:58;;;;;;;;;;;8.80;99.90;;;;;;5028336;28;20029;-48
2022/05/01 00:08:23;;;;;;;19.40;7.78;;;8.70;99.90;;;;;;5029413;28;20297;-48
2022/05/01 00:10:49;;;;;;;17.23;8.30;;;8.60;99.90;;;;;;5030149;28;20025;-49
2022/05/01 00:13:15;;;;;;;12.55;7.75;;;8.70;99.90;;;;;;5029464;28;20033;-50
2022/05/01 00:15:42;;;;;;;15.85;7.65;;;8.70;99.90;;;;;;5030738;28;20430;-51
2022/05/01 00:18:08;;;;;;;13.25;7.78;;;8.70;99.90;;;;;;5030709;28;20371;-47
2022/05/01 00:20:34;;;;;;;16.75;8.00;;;8.70;99.90;;;;;;5030680;28;20021;-48
2022/05/01 00:22:59;;;;;;;14.38;8.25;;;8.70;99.90;;;;;;5030952;28;20462;-47
2022/05/01 00:25:25;;;;;;;16.17;7.72;;;8.80;99.90;;;;;;5030998;28;20033;-47
2022/05/01 00:27:51;;;;;;;12.63;8.60;;;8.70;99.90;;;;;;5013000;28;20032;-54
2022/05/01 00:30:17;;;;;;;16.10;7.72;;;8.70;99.90;;;;;;5031218;28;20097;-49
2022/05/01 00:38:11;;;;;;;17.42;7.40;;;8.50;99.90;;;;;;5031678;28;20465;-49
2022/05/01 00:40:37;;;;;;;16.88;8.40;;;8.50;99.90;;;;;;5031605;28;20029;-47
2022/05/01 00:43:04;;;;;;;18.55;8.20;;;8.50;99.90;;;;;;5031356;28;20021;-47
2022/05/01 00:45:30;;;;;;;12.15;8.20;;;8.30;99.90;;;;;;5031417;28;20140;-48
2022/05/01 00:47:56;;;;;;;20.15;8.10;;;8.50;99.90;;;;;;5028752;28;20160;-47
2022/05/01 00:50:22;;;;;;;17.45;8.85;;;8.50;99.90;;;;;;5028651;28;20500;-48
2022/05/01 00:52:47;;;;;;;17.98;8.43;;;8.50;99.90;;;;;;5031742;28;20123;-47
2022/05/01 00:55:13;;;;;;;17.27;8.68;;;8.50;99.90;;;;;;5047820;22;20156;-52
2022/05/01 00:57:39;;;;;;;20.40;8.95;;;8.50;99.90;;;;;;5053098;28;20155;-52
2022/05/01 01:00:06;;;;;;;16.75;8.23;;;8.40;99.90;;;;;;5061950;28;20024;-53
2022/05/01 01:02:32;;;;;;;15.55;8.20;;;8.30;99.90;;;;;;5073015;28;20090;-52
2022/05/01 01:04:57;;;;;;;17.15;9.10;;;8.30;99.90;;;;;;5055586;28;20036;-53
2022/05/01 01:07:26;;;;;;;17.27;8.68;;;8.30;99.90;;;;;;5073407;28;20024;-55
2022/05/01 01:09:51;;;;;;;14.32;8.55;;;8.20;99.90;;;;;;5073085;28;20060;-52
2022/05/01 01:15:08;;;;;;;15.73;8.77;;;8.30;99.90;;;;;;5074466;28;20118;-52
2022/05/01 01:17:41;;;;;;;20.00;9.73;;;8.30;99.90;;;;;;5073098;28;20040;-52
2022/05/01 01:20:17;;;;;;;20.30;9.65;;;8.30;99.90;;;;;;5055214;28;20103;-53
2022/05/01 01:22:44;;;;;;;19.75;9.38;;;8.20;99.90;;;;;;5073022;28;20047;-51
2022/05/01 01:25:11;;;;;;;17.40;8.68;;;8.20;99.90;;;;;;5073541;28;20031;-50
2022/05/01 01:27:38;;;;;;;15.73;9.50;;;8.20;99.90;;;;;;5072926;28;20048;-50
2022/05/01 01:32:53;;;;;;;17.02;8.98;;;8.10;99.90;;;;;;5073722;28;20082;-55
2022/05/01 01:35:22;;;;;;;16.98;9.18;;;8.10;99.90;;;;;;5073112;28;20539;-50
2022/05/01 01:37:49;;;;;;;19.38;9.93;;;8.10;99.90;;;;;;5073092;28;20151;-51
2022/05/01 01:40:21;;;;;;;16.98;9.50;;;8.10;99.90;;;;;;5073480;28;20028;-54
2022/05/01 01:42:48;;;;;;;21.23;10.25;;;8.10;99.90;;;;;;5073146;28;20064;-51
2022/05/01 01:45:14;;;;;;;20.83;10.50;;;8.10;99.90;;;;;;5073968;28;20107;-51
2022/05/01 01:47:40;;;;;;;21.90;10.25;;;8.10;99.90;;;;;;5073982;28;20397;-51
2022/05/01 01:50:06;;;;;;;17.45;10.40;;;8.00;99.90;;;;;;5073231;28;20070;-50
2022/05/01 01:52:33;;;;;;;17.08;9.90;;;8.00;99.90;;;;;;5073010;28;20115;-50
2022/05/01 01:55:00;;;;;;;16.58;9.68;;;8.00;99.90;;;;;;5072922;28;20017;-51
2022/05/01 01:57:25;;;;;;;17.48;10.77;;;8.00;99.90;;;;;;5072851;28;20025;-51
2022/05/01 01:59:51;;;;;;;14.63;9.75;;;8.00;99.90;;;;;;5072735;28;20401;-50
2022/05/01 02:02:16;;;;;;;20.52;10.57;;;8.00;99.90;;;;;;5073799;28;20079;-54
2022/05/01 02:04:42;;;;;;;17.23;9.45;;;7.90;99.90;;;;;;5072936;28;20099;-52
2022/05/01 02:07:08;;;;;;;20.10;11.18;;;8.00;99.90;;;;;;5058065;28;20092;-51
2022/05/01 02:09:37;;;;;;;23.73;11.20;;;8.00;99.90;;;;;;5076600;28;20040;-51
2022/05/01 02:12:09;;;;;;;17.65;9.98;;;8.00;99.90;;;;;;5076860;28;20024;-50
2022/05/01 02:14:35;;;;;;;22.75;11.10;;;7.90;99.90;;;;;;5076160;28;20064;-52
2022/05/01 02:17:05;;;;;;;18.80;11.05;;;7.90;99.90;;;;;;5077051;28;20075;-54
2022/05/01 02:19:30;;;;;;;19.50;11.10;;;7.90;99.90;;;;;;5076385;28;20033;-50
2022/05/01 02:21:56;;;;;;;21.30;10.85;;;7.90;99.90;;;;;;5076238;28;20439;-54
2022/05/01 02:24:25;;;;;;;22.17;10.18;;;7.90;99.90;;;;;;5076044;28;20447;-51
2022/05/01 02:26:51;;;;;;;20.13;11.13;;;7.90;99.90;;;;;;5058808;28;20484;-52
2022/05/01 02:29:17;;;;;;;22.92;10.98;;;7.90;99.90;;;;;;5077764;28;20021;-53
2022/05/01 02:31:44;;;;;;;17.42;11.02;;;7.90;99.90;;;;;;5076815;28;20032;-53
2022/05/01 02:34:11;;;;;;;19.75;10.32;;;7.80;99.90;;;;;;5076266;28;20020;-54
2022/05/01 02:36:37;;;;;;;24.77;12.05;;;7.80;99.90;;;;;;5075762;28;20025;-51
2022/05/01 02:39:05;;;;;;;17.65;10.98;;;7.80;99.90;;;;;;5075887;28;20412;-50
2022/05/01 02:41:30;;;;;;;21.92;10.63;;;7.70;99.90;;;;;;5075947;28;20409;-51
2022/05/01 02:43:56;;;;;;;18.00;11.77;;;7.60;99.90;;;;;;5075582;28;20025;-51
2022/05/01 02:46:24;;;;;;;21.50;11.80;;;7.60;99.90;;;;;;5076006;28;20099;-51
2022/05/01 02:48:50;;;;;;;18.65;11.68;;;7.60;99.90;;;;;;5075692;28;20017;-51
2022/05/01 02:51:15;;;;;;;20.30;11.23;;;7.60;99.90;;;;;;5075586;28;20024;-53
2022/05/01 02:53:41;;;;;;;20.92;12.20;;;7.60;99.90;;;;;;5075391;28;20534;-51
2022/05/01 02:56:06;;;;;;;26.75;12.00;;;7.70;99.90;;;;;;5075066;28;20451;-52
2022/05/01 02:58:32;;;;;;;24.85;13.02;;;7.60;99.90;;;;;;5075084;28;20032;-54
2022/05/01 03:00:58;;;;;;;19.98;12.20;;;7.60;99.90;;;;;;5075145;28;20058;-52
2022/05/01 03:03:24;;;;;;;20.80;10.55;;;7.60;99.90;;;;;;5075230;28;20112;-53
2022/05/01 03:05:53;;;;;;;25.58;11.10;;;7.60;99.90;;;;;;5075180;28;20466;-52
2022/05/01 03:08:19;;;;;;;22.50;12.02;;;7.60;99.90;;;;;;5071422;28;20031;-51
2022/05/01 03:10:45;;;;;;;22.38;12.10;;;7.60;99.90;;;;;;5074421;28;20029;-54
2022/05/01 03:13:12;;;;;;;20.13;11.57;;;7.60;99.90;;;;;;5074894;28;20392;-53
2022/05/01 03:15:37;;;;;;;20.83;12.75;;;7.60;99.90;;;;;;5072292;28;20048;-50
2022/05/01 03:23:31;;;;;;;28.77;14.63;;;7.60;99.90;;;;;;5075253;28;20042;-54
2022/05/01 03:25:58;;;;;;;20.30;11.68;;;7.50;99.90;;;;;;5074944;28;20393;-55
2022/05/01 03:28:24;;;;;;;27.80;13.48;;;7.50;99.90;;;;;;5075042;28;20029;-54
2022/05/01 03:30:50;;;;;;;22.67;13.18;;;7.50;99.90;;;;;;5056659;28;20025;-53
2022/05/01 03:33:16;;;;;;;27.25;13.85;;;7.40;99.90;;;;;;5074473;28;20397;-52
2022/05/01 03:35:42;;;;;;;25.10;12.48;;;7.50;99.90;;;;;;5074722;28;20024;-54
2022/05/01 03:38:08;;;;;;;23.40;13.50;;;7.50;99.90;;;;;;5074688;28;20090;-53
2022/05/01 03:40:36;;;;;;;24.58;13.20;;;7.50;99.90;;;;;;5074196;28;20150;-55
2022/05/01 03:43:05;;;;;;;22.48;12.25;;;7.50;99.90;;;;;;5074855;28;20119;-51
2022/05/01 03:45:31;;;;;;;24.65;13.15;;;7.50;99.90;;;;;;5074513;28;20554;-51
2022/05/01 03:47:57;;;;;;;27.80;13.93;;;7.50;99.90;;;;;;5074493;28;20036;-51
2022/05/01 03:50:22;;;;;;;20.80;13.20;;;7.60;99.90;;;;;;5074103;28;20044;-51
2022/05/01 03:52:48;;;;;;;26.33;14.10;;;7.50;99.90;;;;;;5074092;28;20426;-50
2022/05/01 03:55:13;;;;;;;24.55;14.43;;;7.50;99.90;;;;;;5056141;28;20028;-51
2022/05/01 03:57:40;;;;;;;31.67;14.82;;;7.50;99.90;;;;;;5074315;28;20029;-52
2022/05/01 04:00:10;;;;;;;24.35;13.73;;;7.50;99.90;;;;;;5074189;28;20027;-51
2022/05/01 04:02:45;;;;;;;29.02;13.90;;;7.50;99.90;;;;;;5056781;28;20401;-52
2022/05/01 04:05:12;;;;;;;24.88;14.23;;;7.50;99.90;;;;;;5073772;28;20047;-52
2022/05/01 04:07:38;;;;;;;30.80;14.82;;;7.50;99.90;;;;;;5073855;28;20017;-51
2022/05/01 04:10:05;;;;;;;26.73;13.95;;;7.50;99.90;;;;;;5073514;28;20020;-51
2022/05/01 04:12:44;;;;;;;28.20;14.30;;;7.60;99.90;;;;;;5073579;28;20051;-52
2022/05/01 04:15:12;;;;;;;25.42;13.43;;;7.60;99.90;;;;;;5073979;28;20025;-52
2022/05/01 04:17:40;;;;;;;24.00;13.73;;;7.60;99.90;;;;;;5073949;28;20013;-51
2022/05/01 04:20:08;;;;;;;21.38;13.55;;;7.50;99.90;;;;;;5055838;28;20028;-54
2022/05/01 04:22:41;;;;;;;24.40;13.77;;;7.50;99.90;;;;;;5074087;28;20023;-53
2022/05/01 04:25:17;;;;;;;23.67;13.93;;;7.50;99.90;;;;;;5056005;28;20504;-52
2022/05/01 04:27:48;;;;;;;20.17;13.18;;;7.50;99.90;;;;;;5073608;28;20481;-50
2022/05/01 04:30:15;;;;;;;24.40;14.70;;;7.50;99.90;;;;;;5072872;28;20024;-53
2022/05/01 04:33:12;;;;;;;21.15;13.57;;;7.50;99.90;;;;;;5073582;28;20097;-51
2022/05/01 04:35:42;;;;;;;24.85;13.88;;;7.50;99.90;;;;;;5054102;28;20028;-51
2022/05/01 04:38:10;;;;;;;26.33;14.52;;;7.60;99.90;;;;;;5055528;28;20028;-51
2022/05/01 04:40:38;;;;;;;22.17;14.00;;;7.60;99.90;;;;;;5073556;28;20362;-51
2022/05/01 04:43:04;;;;;;;26.60;14.27;;;7.70;99.90;;;;;;5073499;28;20029;-52
2022/05/01 04:45:31;;;;;;;28.13;14.75;;;7.70;99.90;;;;;;5073307;28;20032;-52
2022/05/01 04:47:58;;;;;;;22.95;14.15;;;7.80;99.90;;;;;;5073453;28;20036;-51
2022/05/01 04:50:25;;;;;;;32.92;15.65;;;7.90;99.90;;;;;;5073233;28;20040;-51
2022/05/01 04:52:51;;;;;;;27.50;14.07;;;7.90;99.90;;;;;;5073522;28;20021;-54
2022/05/01 04:55:17;;;;;;;23.65;14.98;;;8.00;99.90;;;;;;5049571;28;20105;-53
2022/05/01 04:57:42;;;;;;;24.52;13.50;;;8.00;99.90;;;;;;5034230;28;20049;-51
2022/05/01 05:00:10;;;;;;;25.13;13.95;;;8.20;99.90;;;;;;5034868;28;20505;-56
2022/05/01 05:02:41;;;;;;;22.40;14.45;;;8.20;99.90;;;;;;5039465;28;20022;-54
2022/05/01 05:05:09;;;;;;;23.50;14.32;;;8.30;99.90;;;;;;5034329;28;20021;-52
2022/05/01 05:07:36;;;;;;;23.85;14.80;;;8.40;99.90;;;;;;5033946;28;20073;-51
2022/05/01 05:10:02;;;;;;;22.30;12.82;;;8.30;99.90;;;;;;5032143;28;20075;-51
2022/05/01 05:12:28;;;;;;;19.88;12.30;;;8.30;99.90;;;;;;5050318;28;20025;-52
2022/05/01 05:14:57;;;;;;;24.17;12.73;;;8.40;99.90;;;;;;5053896;28;20013;-51
2022/05/01 05:17:23;;;;;;;18.98;13.02;;;8.40;99.90;;;;;;5035933;28;20021;-55
2022/05/01 05:19:49;;;;;;;20.67;11.93;;;8.30;99.90;;;;;;5036289;28;20017;-53
2022/05/01 05:22:15;;;;;;;22.48;12.30;;;8.30;99.90;;;;;;5054091;28;20021;-55
2022/05/01 05:24:41;;;;;;;20.92;12.05;;;8.40;99.90;;;;;;5054397;28;20041;-53
2022/05/01 05:27:07;;;;;;;21.10;10.30;;;8.40;99.90;;;;;;5054526;28;20029;-52
2022/05/01 05:29:32;;;;;;;18.52;10.80;;;8.50;99.90;;;;;;5054079;28;20109;-54
2022/05/01 05:31:59;;;;;;;17.85;10.48;;;8.60;99.90;;;;;;5053923;28;20024;-54
2022/05/01 05:34:25;;;;;;;20.70;11.10;;;8.70;99.90;;;;;;5054139;28;20497;-54
2022/05/01 05:36:51;;;;;;;18.88;10.85;;;8.70;99.90;;;;;;5054124;28;20024;-55
2022/05/01 05:39:16;;;;;;;19.40;11.30;;;8.60;99.90;;;;;;5053898;28;20029;-55
2022/05/01 05:41:42;;;;;;;22.98;11.68;;;8.70;99.90;;;;;;5056612;28;20108;-55
2022/05/01 05:44:07;;;;;;;21.45;11.73;;;8.70;99.90;;;;;;5057925;28;20025;-54
2022/05/01 05:46:33;;;;;;;20.92;10.68;;;8.70;99.90;;;;;;5058639;28;20493;-53
2022/05/01 05:48:59;;;;;;;23.55;10.18;;;8.70;99.90;;;;;;5058051;28;20029;-54
2022/05/01 05:51:24;;;;;;;22.20;13.43;;;8.80;99.90;;;;;;5058122;28;20449;-54
2022/05/01 05:53:51;;;;;;;23.05;14.25;;;8.90;99.90;;;;;;5057359;28;20036;-55
2022/05/01 05:56:18;;;;;;;24.48;16.00;;;8.90;99.90;;;;;;5057134;28;20413;-53
2022/05/01 05:58:43;;;;;;;27.95;14.45;;;9.00;99.90;;;;;;5057490;28;20385;-54
2022/05/01 06:01:10;;;;;;;23.40;14.50;;;9.00;99.90;;;;;;5057235;28;20025;-55
2022/05/01 06:03:36;;;;;;;25.65;14.85;;;9.00;99.90;;;;;;5057427;28;20061;-52
2022/05/01 06:06:02;;;;;;;19.95;13.82;;;9.10;99.90;;;;;;5056774;28;20551;-53
2022/05/01 06:08:27;;;;;;;23.75;13.80;;;9.10;99.90;;;;;;5056294;28;20037;-52
2022/05/01 06:10:53;;;;;;;19.83;12.38;;;9.10;99.90;;;;;;5056583;28;20060;-54
2022/05/01 06:13:18;;;;;;;20.45;12.60;;;9.10;99.90;;;;;;5056286;28;20083;-54
2022/05/01 06:15:44;;;;;;;22.20;12.98;;;9.10;99.90;;;;;;5056516;28;20025;-50
2022/05/01 06:18:13;;;;;;;22.25;13.13;;;9.20;99.90;;;;;;5056720;28;20028;-53
2022/05/01 06:20:38;;;;;;;21.50;12.90;;;9.30;99.90;;;;;;5038068;28;20029;-52
2022/05/01 06:23:04;;;;;;;23.42;14.90;;;9.20;99.90;;;;;;5056185;28;20025;-51
2022/05/01 06:25:30;;;;;;;23.77;14.68;;;9.30;99.90;;;;;;5056723;28;20094;-53
2022/05/01 06:27:55;;;;;;;24.38;15.15;;;9.20;99.90;;;;;;5037997;28;20086;-51
2022/05/01 06:30:21;;;;;;;23.80;14.50;;;9.30;99.90;;;;;;5055718;28;20047;-52
2022/05/01 06:32:47;;;;;;;23.67;13.93;;;9.30;99.90;;;;;;5056268;28;20021;-53
2022/05/01 06:35:13;;;;;;;22.33;13.45;;;9.30;99.90;;;;;;5055911;28;20519;-51
2022/05/01 06:37:39;;;;;;;26.80;15.27;;;9.40;99.90;;;;;;5055727;28;20013;-51
2022/05/01 06:40:06;;;;;;;20.95;13.73;;;9.40;99.90;;;;;;5055925;28;20017;-51
2022/05/01 06:42:33;;;;;;;23.50;14.82;;;9.50;99.90;;;;;;5056080;28;20029;-55
2022/05/01 06:44:58;;;;;;;22.05;15.63;;;9.60;99.90;;;;;;5055456;28;20166;-52
2022/05/01 06:47:24;;;;;;;22.63;14.88;;;9.60;99.90;;;;;;5055448;28;20100;-53
2022/05/01 06:49:51;;;;;;;22.45;13.82;;;9.60;99.90;;;;;;5055660;28;20017;-51
2022/05/01 06:52:23;;;;;;;21.77;13.00;;;9.80;99.90;;;;;;5054445;28;20032;-50
2022/05/01 06:54:54;;;;;;;21.55;13.48;;;9.90;99.90;;;;;;5037530;28;20036;-53
2022/05/01 06:57:20;;;;;;;25.63;13.13;;;10.00;99.90;;;;;;5084335;22;20416;-75
2022/05/01 06:59:46;;;;;;;22.77;10.95;;;10.00;99.90;;;;;;5061026;28;20029;-76
2022/05/01 07:02:14;;;;;;;21.48;11.18;;;10.10;99.90;;;;;;5060768;28;20025;-76
2022/05/01 07:04:39;;;;;;;17.35;9.18;;;10.10;99.90;;;;;;5044287;28;20410;-76
2022/05/01 07:07:05;;;;;;;16.17;9.85;;;10.00;99.90;;;;;;5061578;28;20068;-76
2022/05/01 07:09:30;;;;;;;18.38;9.32;;;10.00;99.90;;;;;;5062149;28;20029;-76
2022/05/01 07:11:57;;;;;;;17.23;10.05;;;9.90;99.90;;;;;;5063239;28;20029;-76
2022/05/01 07:14:23;;;;;;;18.65;9.98;;;10.00;99.90;;;;;;5061752;28;20029;-76
2022/05/01 07:16:49;;;;;;;19.48;9.38;;;10.00;99.90;;;;;;5058521;28;20025;-76
2022/05/01 07:19:14;;;;;;;14.65;9.68;;;10.10;99.90;;;;;;5058155;28;20490;-77
2022/05/01 07:21:40;;;;;;;16.08;8.05;;;10.20;99.90;;;;;;5057327;28;20104;-76
2022/05/01 07:24:06;;;;;;;14.00;8.20;;;10.30;99.90;;;;;;5038660;28;20025;-76
2022/05/01 07:26:35;;;;;;;10.90;6.70;;;10.40;99.90;;;;;;5037931;28;20032;-76
2022/05/01 07:29:02;;;;;;;17.25;7.03;;;10.50;99.90;;;;;;5038792;28;20044;-76
2022/05/01 07:31:28;;;;;;;9.80;6.70;;;10.60;99.90;;;;;;5041329;28;20056;-76
2022/05/01 07:33:53;;;;;;;12.98;7.18;;;10.60;99.90;;;;;;5058443;28;20044;-76
2022/05/01 07:36:21;;;;;;;15.98;8.02;;;10.60;99.90;;;;;;5055471;28;20029;-76
2022/05/01 07:38:49;;;;;;;20.88;7.72;;;10.80;99.90;;;;;;5056860;28;20025;-76
2022/05/01 07:41:18;;;;;;;14.30;6.63;;;10.80;99.90;;;;;;5056803;28;20044;-76
2022/05/01 07:43:47;;;;;;;19.38;7.55;;;10.70;99.90;;;;;;5055975;28;20099;-77
2022/05/01 07:46:13;;;;;;;20.67;9.10;;;10.80;99.90;;;;;;5055629;28;20029;-76
2022/05/01 07:48:39;;;;;;;19.05;8.77;;;10.80;99.90;;;;;;5055240;28;20037;-76
2022/05/01 07:51:05;;;;;;;15.40;8.00;;;10.90;99.90;;;;;;5055223;28;20025;-76
2022/05/01 07:53:32;;;;;;;15.02;7.55;;;11.00;99.90;;;;;;5055717;28;20024;-76
2022/05/01 07:55:58;;;;;;;17.77;7.95;;;11.00;99.90;;;;;;5056479;28;20040;-77
2022/05/01 07:58:23;;;;;;;13.80;7.28;;;10.90;99.90;;;;;;5056811;28;20025;-77
2022/05/01 08:00:49;;;;;;;15.85;6.70;;;11.00;99.90;;;;;;5040081;28;20028;-77
2022/05/01 08:05:59;;;;;;;11.18;6.45;;;11.20;99.90;;;;;;5056340;28;20112;-77
2022/05/01 08:08:26;;;;;;;12.10;6.53;;;11.30;99.90;;;;;;5037743;28;20056;-77
2022/05/01 08:10:51;;;;;;;12.65;6.63;;;11.50;99.90;;;;;;5041020;28;20036;-76
2022/05/01 08:13:17;;;;;;;10.35;5.75;;;11.70;99.90;;;;;;5059341;28;20388;-77
2022/05/01 08:15:43;;;;;;;11.13;5.75;;;11.80;99.90;;;;;;5056074;28;20021;-76
2022/05/01 08:21:07;;;;;;;10.00;5.63;;;11.80;99.90;;;;;;5056793;28;20106;-76
2022/05/01 08:23:34;;;;;;;11.65;5.60;;;11.90;99.90;;;;;;5055861;28;20021;-76
2022/05/01 08:26:03;;;;;;;11.73;4.72;;;11.80;99.90;;;;;;5055910;28;20029;-76
2022/05/01 08:28:30;;;;;;;8.15;5.88;;;11.80;99.90;;;;;;5055247;28;20474;-76
2022/05/01 08:30:56;;;;;;;10.45;6.20;;;11.70;99.90;;;;;;5055516;28;20560;-77
2022/05/01 08:33:21;;;;;;;7.85;5.40;;;11.60;99.90;;;;;;5056189;28;20021;-76
2022/05/01 08:35:47;;;;;;;9.23;5.50;;;11.80;99.90;;;;;;5055546;28;20073;-75
2022/05/01 08:38:12;;;;;;;12.57;5.68;;;11.90;99.90;;;;;;5055807;28;20023;-76
2022/05/01 08:40:38;;;;;;;12.75;5.82;;;11.90;99.90;;;;;;5056917;28;20482;-76
2022/05/01 08:43:05;;;;;;;8.05;5.30;;;12.00;99.90;;;;;;5056578;28;20017;-76
2022/05/01 08:45:55;;;;;;;10.10;5.68;;;12.00;99.90;;;;;;5055181;28;20032;-76
2022/05/01 08:48:53;;;;;;;10.55;5.65;;;12.10;99.90;;;;;;5037488;28;20513;-76
2022/05/01 08:51:21;;;;;;;9.80;5.18;;;11.90;99.90;;;;;;5037268;28;20082;-76
2022/05/01 08:53:47;;;;;;;10.02;4.85;;;11.90;99.90;;;;;;5055389;28;20024;-76
2022/05/01 08:56:13;;;;;;;8.27;4.60;;;12.00;99.90;;;;;;5055353;28;20072;-76
2022/05/01 08:58:40;;;;;;;11.48;5.70;;;12.10;99.90;;;;;;5056271;28;20200;-76
2022/05/01 09:01:09;;;;;;;8.30;4.90;;;12.30;99.90;;;;;;5056921;28;20024;-76
2022/05/01 09:03:36;;;;;;;8.23;5.80;;;12.40;99.90;;;;;;5056492;28;20032;-76
2022/05/01 09:06:03;;;;;;;11.18;5.22;;;12.50;99.90;;;;;;5038495;28;20370;-76
2022/05/01 09:08:29;;;;;;;8.02;5.15;;;12.60;99.90;;;;;;5055130;28;20079;-76
2022/05/01 09:10:55;;;;;;;9.30;4.88;;;12.80;99.90;;;;;;5055225;28;20469;-76
2022/05/01 09:13:25;;;;;;;6.68;4.63;;;12.90;99.90;;;;;;5052130;28;20064;-76
2022/05/01 09:15:52;;;;;;;10.38;5.65;;;13.10;99.90;;;;;;5055035;28;20028;-76
2022/05/01 09:18:19;;;;;;;9.50;5.40;;;13.00;99.90;;;;;;5058702;28;20025;-75
2022/05/01 09:21:07;;;;;;;7.75;4.90;;;13.00;99.90;;;;;;5059426;28;20025;-76
2022/05/01 09:23:44;;;;;;;8.65;5.57;;;13.20;99.90;;;;;;5059818;28;20035;-76
2022/05/01 09:26:12;;;;;;;13.70;7.63;;;13.30;99.90;;;;;;5059549;28;20029;-75
2022/05/01 09:28:48;;;;;;;10.60;7.32;;;13.40;99.90;;;;;;5058509;28;20466;-76
2022/05/01 09:31:13;;;;;;;11.23;6.85;;;13.40;99.90;;;;;;5040831;28;20048;-74
2022/05/01 09:33:39;;;;;;;11.05;6.63;;;13.60;99.90;;;;;;5058806;28;20037;-74
2022/05/01 09:36:05;;;;;;;8.68;6.18;;;13.70;99.90;;;;;;5058079;28;20396;-75
2022/05/01 09:38:31;;;;;;;9.18;5.82;;;13.70;99.90;;;;;;5058197;28;20098;-75
2022/05/01 09:40:58;;;;;;;8.60;6.70;;;13.90;99.90;;;;;;5041504;28;20442;-76
2022/05/01 09:43:44;;;;;;;11.18;6.70;;;14.20;99.90;;;;;;5057284;28;20047;-73
2022/05/01 09:46:29;;;;;;;9.82;6.45;;;14.40;99.90;;;;;;5039865;28;20410;-75
2022/05/01 09:49:02;;;;;;;12.25;6.53;;;14.30;99.90;;;;;;5064135;28;20112;-74
2022/05/01 09:51:39;;;;;;;9.88;5.40;;;14.20;99.90;;;;;;5062967;28;20017;-75
2022/05/01 09:54:06;;;;;;;10.38;6.07;;;14.20;99.90;;;;;;5052231;28;20029;-75
2022/05/01 09:56:52;;;;;;;10.13;5.93;;;14.00;99.90;;;;;;5066609;28;20037;-76
2022/05/01 09:59:20;;;;;;;10.80;5.75;;;13.80;99.90;;;;;;5060713;28;20532;-74
2022/05/01 10:02:05;;;;;;;10.52;6.00;;;13.90;99.90;;;;;;5058695;28;20092;-75
2022/05/01 10:04:33;;;;;;;8.77;5.55;;;14.00;99.90;;;;;;5056274;28;20585;-74
2022/05/01 10:06:59;;;;;;;9.60;5.68;;;14.10;99.90;;;;;;5056508;28;20033;-74
2022/05/01 10:09:27;;;;;;;9.27;4.88;;;14.00;99.90;;;;;;5037050;28;20025;-75
2022/05/01 10:11:55;;;;;;;13.68;5.63;;;13.80;99.90;;;;;;5057354;28;20025;-74
2022/05/01 10:14:21;;;;;;;13.50;5.45;;;13.80;99.90;;;;;;5058116;28;20025;-74
2022/05/01 10:16:47;;;;;;;7.80;5.68;;;13.90;99.90;;;;;;5051679;28;20029;-73
2022/05/01 10:19:20;;;;;;;6.72;4.50;;;13.90;99.90;;;;;;5065718;28;20381;-74
2022/05/01 10:21:48;;;;;;;11.75;4.95;;;13.90;99.90;;;;;;5058679;28;20054;-76
2022/05/01 10:24:15;;;;;;;7.82;4.85;;;14.00;99.90;;;;;;5058059;28;20021;-74
2022/05/01 10:27:01;;;;;;;10.57;5.50;;;14.10;99.90;;;;;;5057497;28;20568;-74
2022/05/01 10:29:40;;;;;;;6.75;4.63;;;14.20;99.90;;;;;;5040173;28;20393;-74
2022/05/01 10:32:21;;;;;;;10.73;5.55;;;14.30;99.90;;;;;;5059170;28;20025;-73
2022/05/01 10:35:24;;;;;;;10.18;5.05;;;14.30;99.90;;;;;;5059862;28;20339;-74
2022/05/01 10:38:11;;;;;;;10.80;5.50;;;14.10;99.90;;;;;;5041980;28;20033;-74
2022/05/01 10:40:51;;;;;;;8.70;5.07;;;14.20;99.90;;;;;;5058829;28;20017;-75
2022/05/01 10:43:24;;;;;;;11.35;5.32;;;14.40;99.90;;;;;;5062499;28;20567;-74
2022/05/01 10:45:51;;;;;;;9.20;5.25;;;14.30;99.90;;;;;;5074545;28;20029;-75
2022/05/01 10:48:32;;;;;;;11.35;5.32;;;14.40;99.90;;;;;;5050729;28;20025;-78
2022/05/01 10:51:36;;;;;;;13.73;6.13;;;14.60;99.90;;;;;;5040128;28;20371;-76
2022/05/01 10:54:13;;;;;;;8.68;4.78;;;14.70;99.90;;;;;;5058255;28;20482;-71
2022/05/01 10:56:43;;;;;;;9.05;4.93;;;15.00;99.90;;;;;;5056993;28;20173;-72
2022/05/01 10:59:30;;;;;;;9.70;4.35;;;15.20;99.90;;;;;;5038981;28;20020;-72
2022/05/01 11:01:58;;;;;;;11.40;5.20;;;15.30;99.90;;;;;;5039316;28;20535;-71
2022/05/01 11:04:25;;;;;;;6.70;4.10;;;15.30;99.90;;;;;;5057321;28;20033;-72
2022/05/01 11:07:03;;;;;;;7.30;4.88;;;15.50;99.90;;;;;;5057592;28;20021;-72
2022/05/01 11:09:34;;;;;;;7.30;4.85;;;15.60;99.90;;;;;;5058719;28;20048;-71
2022/05/01 11:12:00;;;;;;;;;;;15.60;99.90;;;;;;5058037;28;20029;-72
2022/05/01 11:14:48;;;;;;;7.35;3.50;;;15.40;99.90;;;;;;5056579;28;20332;-72
2022/05/01 11:17:13;;;;;;;7.95;4.18;;;15.40;99.90;;;;;;5056236;28;20021;-71
2022/05/01 11:19:50;;;;;;;7.57;4.05;;;15.30;99.90;;;;;;5056660;28;20460;-71
2022/05/01 11:22:16;;;;;;;6.57;4.32;;;15.30;99.90;;;;;;5056961;28;20021;-72
2022/05/01 11:24:45;;;;;;;6.43;3.72;;;15.20;99.90;;;;;;5052046;28;20043;-72
2022/05/01 11:27:16;;;;;;;5.32;3.35;;;15.30;99.90;;;;;;5056191;28;20021;-72
2022/05/01 11:30:07;;;;;;;7.00;3.67;;;15.40;98.00;;;;;;5056339;28;20071;-72
2022/05/01 11:32:52;;;;;;;6.07;3.67;;;15.50;98.20;;;;;;5056117;28;20031;-72
2022/05/01 11:35:19;;;;;;;6.72;3.22;;;15.70;97.20;;;;;;5056206;28;20484;-72
2022/05/01 11:37:59;;;;;;;4.63;3.47;;;15.90;94.90;;;;;;5055739;28;20044;-72
2022/05/01 11:40:29;;;;;;;5.55;3.10;;;15.90;92.00;;;;;;5056154;28;20032;-73
2022/05/01 11:43:31;;;;;;;10.15;3.85;;;15.90;92.10;;;;;;5056317;28;20021;-72
2022/05/01 11:45:58;;;;;;;5.90;3.92;;;15.50;93.30;;;;;;4978278;28;20049;-72
2022/05/01 11:48:24;;;;;;;6.63;4.10;;;15.30;94.10;;;;;;5044564;28;20040;-72
2022/05/01 11:50:51;;;;;;;6.55;3.88;;;15.00;95.70;;;;;;5056154;28;20347;-73
2022/05/01 11:53:19;;;;;;;7.03;3.55;;;14.90;96.00;;;;;;5056259;28;20111;-72
2022/05/01 12:04:24;;;;;;;9.32;4.10;;;14.60;96.70;;;;;;5042601;28;20036;-73
2022/05/01 12:07:00;;;;;;;9.75;3.90;;;14.40;96.70;;;;;;5037320;28;20041;-72
2022/05/01 12:09:26;;;;;;;9.52;4.30;;;14.30;97.60;;;;;;5055942;28;20536;-72
2022/05/01 12:11:53;;;;;;;11.35;5.00;;;14.50;98.50;;;;;;5056468;28;20028;-72
2022/05/01 12:14:20;;;;;;;6.85;4.20;;;14.30;99.90;;;;;;5041336;28;20438;-72
2022/05/01 12:16:46;;;;;;;9.25;5.03;;;14.20;99.90;;;;;;5040299;28;20051;-73
2022/05/01 12:19:13;;;;;;;9.18;4.60;;;14.30;99.90;;;;;;5050387;28;20045;-72
2022/05/01 12:21:39;;;;;;;8.52;4.40;;;14.20;99.90;;;;;;5040332;28;20030;-72
2022/05/01 12:24:07;;;;;;;9.40;4.68;;;14.40;99.90;;;;;;5042575;28;20021;-72
2022/05/01 12:26:37;;;;;;;5.57;3.90;;;14.40;99.20;;;;;;5055165;28;20021;-70
2022/05/01 12:29:20;;;;;;;6.60;3.33;;;14.40;98.10;;;;;;5048998;28;20022;-71
2022/05/01 12:32:00;;;;;;;6.10;3.63;;;14.40;97.30;;;;;;5048905;28;20107;-70
2022/05/01 12:34:29;;;;;;;8.73;3.70;;;14.30;97.50;;;;;;5064047;28;20021;-71
2022/05/01 12:36:59;;;;;;;8.63;3.85;;;14.30;97.80;;;;;;5065583;28;20448;-71
2022/05/01 12:39:26;;;;;;;7.72;3.08;;;14.40;98.60;;;;;;5057534;28;20017;-72
2022/05/01 12:45:09;;;;;;;8.38;3.58;;;14.40;98.20;;;;;;5048104;28;20048;-72
2022/05/01 12:47:37;;;;;;;8.98;4.20;;;14.60;98.30;;;;;;5036582;28;20025;-71
2022/05/01 12:50:06;;;;;;;5.05;3.90;;;14.60;97.00;;;;;;5040298;28;20108;-75
2022/05/01 12:52:36;;;;;;;8.63;3.83;;;14.50;97.40;;;;;;5051864;28;20030;-73
2022/05/01 12:55:16;;;;;;;4.75;3.15;;;14.50;98.00;;;;;;5047972;28;20036;-72
2022/05/01 12:57:55;;;;;;;8.63;4.60;;;14.50;97.50;;;;;;5045402;28;20370;-73
2022/05/01 13:00:41;;;;;;;5.55;3.67;;;14.60;97.20;;;;;;5052124;28;20021;-73
2022/05/01 13:03:25;;;;;;;7.60;3.90;;;14.50;96.90;;;;;;5055474;28;20108;-72
2022/05/01 13:06:10;;;;;;;6.88;3.58;;;14.50;97.20;;;;;;5048436;28;20017;-72
2022/05/01 13:08:38;;;;;;;6.60;3.53;;;14.60;96.80;;;;;;5052648;28;20448;-74
2022/05/01 13:11:16;;;;;;;5.30;4.00;;;14.50;97.40;;;;;;5053858;28;20431;-73
2022/05/01 13:13:49;;;;;;;6.03;4.30;;;14.40;99.20;;;;;;5052025;28;20031;-73
2022/05/01 13:16:19;;;;;;;5.82;4.00;;;14.30;99.90;;;;;;5053820;28;20045;-72
2022/05/01 13:18:45;;;;;;;5.88;4.28;;;14.30;99.90;;;;;;5053558;28;20025;-72
2022/05/01 13:21:11;;;;;;;5.38;4.28;;;14.30;99.90;;;;;;5054557;28;20052;-72
2022/05/01 13:23:40;;;;;;;6.18;4.47;;;14.50;99.90;;;;;;5054503;28;20028;-71